createdAt,value
2023-04-04T00:02:23.059Z,15.93
2023-04-04T00:05:28.792Z,16.67
2023-04-04T00:08:34.189Z,15.65
2023-04-04T00:11:42.243Z,16.85
2023-04-04T00:14:47.641Z,15.73
2023-04-04T00:17:53.331Z,15.07
2023-04-04T00:20:59.095Z,15.57
2023-04-04T00:24:04.472Z,15.65
2023-04-04T00:27:12.633Z,15.63
2023-04-04T00:30:18.055Z,15.18
2023-04-04T00:33:24.157Z,16.55
2023-04-04T00:36:29.666Z,15.38
2023-04-04T00:39:34.919Z,15.95
2023-04-04T00:42:42.828Z,15.57
2023-04-04T00:45:48.281Z,16.17
2023-04-04T00:48:54.450Z,15.48
2023-04-04T00:52:00.180Z,16.13
2023-04-04T00:55:05.693Z,15.32
2023-04-04T00:58:14.417Z,15.57
2023-04-04T01:01:19.951Z,15.40
2023-04-04T01:04:25.512Z,15.30
2023-04-04T01:07:32.317Z,15.68
2023-04-04T01:10:37.870Z,15.25
2023-04-04T01:13:46.808Z,15.85
2023-04-04T01:16:55.066Z,15.93
2023-04-04T01:20:08.012Z,15.25
2023-04-04T01:23:21.998Z,15.60
2023-04-04T01:26:30.183Z,16.00
2023-04-04T01:29:39.757Z,15.57
2023-04-04T01:32:47.732Z,15.40
2023-04-04T01:35:57.074Z,15.70
2023-04-04T01:39:06.441Z,14.55
2023-04-04T01:42:15.068Z,16.25
2023-04-04T01:45:24.681Z,15.02
2023-04-04T01:48:30.519Z,16.20
2023-04-04T01:51:41.154Z,15.23
2023-04-04T01:54:46.922Z,15.30
2023-04-04T01:57:55.168Z,15.93
2023-04-04T02:01:00.770Z,16.08
2023-04-04T02:04:07.500Z,16.45
2023-04-04T02:07:13.026Z,16.88
2023-04-04T02:10:18.700Z,15.60
2023-04-04T02:13:26.940Z,16.38
2023-04-04T02:16:34.214Z,15.35
2023-04-04T02:19:39.898Z,16.52
2023-04-04T02:22:44.934Z,17.10
2023-04-04T02:25:50.201Z,17.70
2023-04-04T02:28:58.015Z,16.52
2023-04-04T02:32:03.560Z,16.42
2023-04-04T02:35:10.223Z,16.58
2023-04-04T02:38:17.075Z,15.60
2023-04-04T02:41:24.332Z,15.70
2023-04-04T02:44:32.484Z,16.33
2023-04-04T02:47:38.617Z,16.95
2023-04-04T02:50:44.585Z,16.63
2023-04-04T02:53:51.685Z,16.53
2023-04-04T02:57:02.852Z,17.50
2023-04-04T03:00:12.102Z,16.35
2023-04-04T03:03:17.564Z,17.27
2023-04-04T03:06:25.094Z,16.83
2023-04-04T03:09:30.394Z,16.45
2023-04-04T03:12:36.005Z,16.13
2023-04-04T03:15:44.308Z,15.80
2023-04-04T03:18:54.215Z,14.82
2023-04-04T03:22:00.197Z,15.38
2023-04-04T03:25:05.814Z,15.25
2023-04-04T03:28:12.889Z,15.90
2023-04-04T03:31:21.819Z,15.10
2023-04-04T03:34:27.747Z,15.35
2023-04-04T03:37:33.012Z,15.00
2023-04-04T03:40:39.029Z,15.35
2023-04-04T03:43:49.805Z,16.02
2023-04-04T03:46:58.649Z,16.30
2023-04-04T03:53:11.626Z,16.20
2023-04-04T03:56:17.015Z,14.60
2023-04-04T03:59:23.625Z,14.88
2023-04-04T04:02:31.936Z,13.98
2023-04-04T04:05:37.230Z,13.88
2023-04-04T04:08:42.664Z,14.60
2023-04-04T04:11:48.240Z,14.43
2023-04-04T04:14:53.844Z,14.73
2023-04-04T04:18:02.205Z,13.07
2023-04-04T04:21:07.729Z,13.38
2023-04-04T04:24:14.213Z,12.35
2023-04-04T04:27:19.793Z,13.40
2023-04-04T04:30:25.560Z,13.27
2023-04-04T04:33:33.922Z,14.25
2023-04-04T04:36:42.837Z,13.25
2023-04-04T04:40:03.843Z,13.38
2023-04-04T04:43:17.418Z,12.27
2023-04-04T04:46:24.133Z,11.77
2023-04-04T04:49:33.519Z,12.10
2023-04-04T04:52:42.272Z,12.00
2023-04-04T04:55:48.778Z,12.88
2023-04-04T04:58:53.924Z,11.27
2023-04-04T05:02:02.939Z,12.23
2023-04-04T05:05:15.550Z,12.50
2023-04-04T05:08:21.264Z,12.48
2023-04-04T05:11:39.231Z,13.30
2023-04-04T05:14:48.136Z,12.02
2023-04-04T05:17:55.038Z,13.15
2023-04-04T05:21:04.103Z,13.52
2023-04-04T05:27:16.760Z,12.38
2023-04-04T05:30:26.712Z,13.60
2023-04-04T05:33:47.899Z,12.23
2023-04-04T05:37:21.991Z,13.55
2023-04-04T05:40:28.306Z,11.98
2023-04-04T05:43:43.766Z,12.77
2023-04-04T05:46:53.872Z,13.30
2023-04-04T05:49:59.821Z,13.55
2023-04-04T05:53:08.155Z,13.40
2023-04-04T05:56:13.850Z,13.73
2023-04-04T05:59:19.419Z,11.95
2023-04-04T06:02:33.616Z,13.00
2023-04-04T06:05:42.324Z,13.13
2023-04-04T06:08:53.848Z,12.55
2023-04-04T06:11:59.556Z,12.15
2023-04-04T06:15:05.564Z,11.70
2023-04-04T06:18:11.102Z,12.32
2023-04-04T06:21:16.840Z,12.00
2023-04-04T06:24:25.874Z,13.48
2023-04-04T06:27:31.279Z,12.98
2023-04-04T06:30:39.776Z,12.25
2023-04-04T06:33:46.710Z,12.90
2023-04-04T06:36:53.073Z,12.50
2023-04-04T06:40:03.425Z,13.32
2023-04-04T06:43:09.448Z,13.85
2023-04-04T06:46:22.450Z,12.00
2023-04-04T06:49:27.850Z,11.43
2023-04-04T06:52:33.711Z,11.27
2023-04-04T06:55:43.689Z,11.30
2023-04-04T06:58:49.436Z,10.40
2023-04-04T07:01:55.032Z,10.95
2023-04-04T07:05:00.499Z,10.85
2023-04-04T07:08:05.654Z,11.43
2023-04-04T07:11:14.265Z,9.93
2023-04-04T07:14:19.490Z,10.05
2023-04-04T07:17:25.498Z,10.07
2023-04-04T07:20:31.399Z,10.13
2023-04-04T07:23:36.603Z,11.25
2023-04-04T07:26:44.600Z,11.23
2023-04-04T07:29:49.860Z,11.30
2023-04-04T07:33:00.220Z,11.32
2023-04-04T07:36:05.605Z,10.88
2023-04-04T07:39:10.864Z,9.80
2023-04-04T07:42:23.403Z,11.85
2023-04-04T07:45:28.809Z,10.43
2023-04-04T07:48:34.204Z,10.68
2023-04-04T07:51:40.239Z,10.57
2023-04-04T07:54:45.965Z,10.70
2023-04-04T07:57:53.669Z,9.88
2023-04-04T08:01:00.484Z,10.93
2023-04-04T08:04:06.442Z,11.65
2023-04-04T08:07:11.659Z,11.55
2023-04-04T08:10:17.959Z,10.85
2023-04-04T08:13:26.091Z,10.48
2023-04-04T08:16:31.579Z,9.57
2023-04-04T08:19:37.034Z,9.85
2023-04-04T08:22:42.489Z,10.57
2023-04-04T08:25:47.762Z,9.55
2023-04-04T08:28:55.897Z,10.07
2023-04-04T08:32:01.435Z,10.52
2023-04-04T08:35:07.321Z,11.05
2023-04-04T08:38:12.700Z,10.13
2023-04-04T08:41:18.990Z,10.32
2023-04-04T08:44:28.068Z,11.23
2023-04-04T08:47:34.061Z,11.02
2023-04-04T08:50:41.181Z,11.02
2023-04-04T08:53:47.290Z,11.30
2023-04-04T08:56:53.248Z,11.15
2023-04-04T09:00:02.836Z,10.77
2023-04-04T09:03:13.870Z,10.43
2023-04-04T09:06:19.796Z,10.90
2023-04-04T09:09:25.502Z,11.95
2023-04-04T09:12:32.403Z,10.98
2023-04-04T09:15:41.716Z,11.02
2023-04-04T09:18:47.524Z,10.70
2023-04-04T09:21:53.219Z,11.35
2023-04-04T09:24:59.805Z,10.52
2023-04-04T09:28:06.259Z,11.15
2023-04-04T09:31:14.767Z,10.32
2023-04-04T09:37:25.232Z,10.93
2023-04-04T09:40:32.061Z,11.07
2023-04-04T09:43:37.806Z,9.90
2023-04-04T09:46:46.909Z,10.18
2023-04-04T09:49:52.655Z,10.45
2023-04-04T09:52:59.821Z,10.30
2023-04-04T09:56:06.009Z,10.55
2023-04-04T09:59:11.972Z,10.32
2023-04-04T10:02:20.247Z,10.27
2023-04-04T10:05:26.588Z,10.00
2023-04-04T10:08:32.525Z,11.68
2023-04-04T10:11:39.272Z,11.00
2023-04-04T10:14:44.755Z,10.68
2023-04-04T10:17:54.375Z,9.77
2023-04-04T10:21:12.251Z,10.77
2023-04-04T10:24:20.478Z,11.88
2023-04-04T10:27:25.718Z,10.35
2023-04-04T10:30:32.451Z,11.23
2023-04-04T10:33:44.272Z,10.75
2023-04-04T10:36:52.172Z,11.95
2023-04-04T10:40:02.522Z,10.40
2023-04-04T10:43:09.791Z,11.25
2023-04-04T10:46:16.747Z,10.70
2023-04-04T10:49:24.872Z,10.55
2023-04-04T10:52:31.930Z,10.88
2023-04-04T10:55:37.961Z,11.55
2023-04-04T10:58:44.181Z,10.40
2023-04-04T11:01:53.207Z,9.95
2023-04-04T11:05:13.210Z,10.13
2023-04-04T11:08:20.341Z,9.55
2023-04-04T11:11:28.801Z,10.13
2023-04-04T11:17:54.366Z,10.10
2023-04-04T11:21:05.642Z,9.55
2023-04-04T11:24:20.583Z,9.50
2023-04-04T11:27:26.444Z,9.48
2023-04-04T11:30:32.613Z,9.85
2023-04-04T11:33:57.295Z,11.18
2023-04-04T11:37:18.086Z,12.05
2023-04-04T11:40:23.960Z,11.93
2023-04-04T11:43:30.092Z,10.55
2023-04-04T11:46:36.251Z,12.43
2023-04-04T11:49:42.760Z,11.60
2023-04-04T11:52:52.715Z,11.68
2023-04-04T11:55:59.412Z,11.88
2023-04-04T11:59:11.593Z,11.05
2023-04-04T12:02:19.281Z,10.90
2023-04-04T12:05:26.086Z,11.30
2023-04-04T12:08:34.371Z,11.10
2023-04-04T12:11:40.285Z,10.43
2023-04-04T12:14:46.237Z,10.95
2023-04-04T12:17:52.440Z,10.57
2023-04-04T12:20:59.756Z,12.13
2023-04-04T12:24:08.400Z,10.98
2023-04-04T12:27:13.781Z,11.63
2023-04-04T12:30:19.911Z,10.85
2023-04-04T12:33:25.037Z,11.98
2023-04-04T12:36:33.477Z,11.60
2023-04-04T12:39:44.418Z,10.98
2023-04-04T12:42:52.127Z,11.85
2023-04-04T12:45:57.933Z,10.65
2023-04-04T12:49:03.090Z,10.93
2023-04-04T12:52:09.500Z,10.65
2023-04-04T12:55:17.926Z,9.82
2023-04-04T12:58:24.687Z,9.27
2023-04-04T13:01:30.173Z,10.10
2023-04-04T13:04:36.529Z,10.77
2023-04-04T13:07:44.333Z,9.95
2023-04-04T13:11:08.084Z,10.15
2023-04-04T13:14:15.077Z,9.95
2023-04-04T13:17:20.914Z,10.18
2023-04-04T13:20:27.118Z,8.90
2023-04-04T13:23:32.683Z,11.13
2023-04-04T13:26:40.581Z,10.75
2023-04-04T13:29:45.779Z,10.02
2023-04-04T13:32:51.453Z,10.85
2023-04-04T13:35:57.966Z,12.10
2023-04-04T13:39:03.374Z,11.48
2023-04-04T13:42:11.229Z,11.23
2023-04-04T13:45:17.559Z,11.15
2023-04-04T13:48:23.417Z,11.15
2023-04-04T13:51:28.753Z,11.05
2023-04-04T13:54:34.194Z,12.23
2023-04-04T13:57:42.051Z,10.55
2023-04-04T14:00:47.537Z,11.50
2023-04-04T14:03:52.922Z,11.38
2023-04-04T14:06:58.459Z,11.68
2023-04-04T14:10:03.625Z,11.77
2023-04-04T14:13:11.693Z,11.07
2023-04-04T14:16:17.315Z,11.05
2023-04-04T14:19:22.679Z,11.80
2023-04-04T14:22:28.174Z,11.95
2023-04-04T14:25:33.920Z,11.85
2023-04-04T14:28:41.719Z,11.35
2023-04-04T14:31:47.672Z,10.57
2023-04-04T14:34:53.172Z,11.02
2023-04-04T14:37:58.840Z,10.43
2023-04-04T14:41:04.024Z,10.45
2023-04-04T14:44:12.047Z,11.48
2023-04-04T14:47:17.175Z,11.73
2023-04-04T14:50:22.869Z,10.98
2023-04-04T14:53:28.071Z,11.38
2023-04-04T14:56:33.783Z,12.68
2023-04-04T14:59:41.603Z,10.82
2023-04-04T15:02:47.553Z,10.82
2023-04-04T15:05:52.836Z,12.25
2023-04-04T15:08:58.392Z,11.50
2023-04-04T15:12:03.841Z,11.95
2023-04-04T15:15:13.760Z,11.25
2023-04-04T15:18:19.260Z,12.10
2023-04-04T15:21:24.930Z,11.20
2023-04-04T15:24:30.225Z,10.48
2023-04-04T15:27:36.159Z,10.52
2023-04-04T15:30:44.156Z,11.00
2023-04-04T15:33:49.397Z,10.93
2023-04-04T15:36:55.655Z,10.60
2023-04-04T15:40:01.204Z,10.80
2023-04-04T15:43:06.683Z,10.88
2023-04-04T15:46:14.814Z,10.02
2023-04-04T15:52:25.208Z,10.52
2023-04-04T15:55:30.556Z,10.50
2023-04-04T15:58:36.057Z,11.30
2023-04-04T16:01:44.066Z,9.95
2023-04-04T16:04:49.600Z,10.43
2023-04-04T16:07:54.921Z,10.15
2023-04-04T16:11:00.811Z,10.35
2023-04-04T16:14:06.369Z,10.02
2023-04-04T16:17:14.251Z,9.35
2023-04-04T16:20:19.478Z,9.65
2023-04-04T16:23:25.005Z,9.20
2023-04-04T16:26:30.255Z,8.95
2023-04-04T16:29:35.916Z,9.10
2023-04-04T16:32:46.866Z,10.02
2023-04-04T16:35:52.277Z,9.45
2023-04-04T16:38:59.636Z,8.05
2023-04-04T16:42:05.059Z,9.43
2023-04-04T16:45:11.301Z,8.75
2023-04-04T16:48:19.658Z,9.63
2023-04-04T16:51:25.117Z,9.60
2023-04-04T16:54:30.812Z,9.75
2023-04-04T16:57:36.206Z,9.52
2023-04-04T17:00:42.161Z,9.77
2023-04-04T17:03:50.315Z,8.90
2023-04-04T17:06:55.594Z,9.80
2023-04-04T17:10:01.436Z,13.27
2023-04-04T17:13:08.131Z,10.55
2023-04-04T17:16:13.617Z,10.18
2023-04-04T17:19:22.072Z,10.10
2023-04-04T17:22:27.580Z,10.70
2023-04-04T17:25:32.808Z,10.20
2023-04-04T17:28:37.975Z,10.35
2023-04-04T17:31:44.916Z,10.02
2023-04-04T17:34:53.083Z,9.98
2023-04-04T17:37:58.552Z,10.93
2023-04-04T17:41:08.253Z,10.50
2023-04-04T17:44:13.546Z,10.50
2023-04-04T17:47:19.071Z,10.43
2023-04-04T17:50:26.953Z,11.00
2023-04-04T17:53:32.310Z,10.00
2023-04-04T17:56:37.671Z,9.52
2023-04-04T17:59:43.076Z,10.27
2023-04-04T18:02:49.142Z,10.38
2023-04-04T18:05:57.654Z,9.30
2023-04-04T18:09:02.959Z,8.80
2023-04-04T18:12:08.531Z,10.40
2023-04-04T18:15:14.604Z,9.55
2023-04-04T18:18:21.643Z,9.00
2023-04-04T18:21:29.838Z,8.85
2023-04-04T18:24:35.426Z,9.43
2023-04-04T18:27:41.561Z,9.23
2023-04-04T18:30:47.018Z,9.43
2023-04-04T18:33:52.677Z,9.10
2023-04-04T18:37:01.677Z,10.25
2023-04-04T18:40:07.571Z,10.52
2023-04-04T18:43:12.859Z,10.75
2023-04-04T18:46:18.185Z,10.95
2023-04-04T18:49:23.879Z,10.57
2023-04-04T18:52:31.787Z,11.15
2023-04-04T18:55:37.192Z,11.10
2023-04-04T18:58:42.715Z,10.48
2023-04-04T19:01:48.354Z,11.35
2023-04-04T19:04:56.269Z,12.30
2023-04-04T19:08:04.605Z,11.68
2023-04-04T19:11:10.054Z,11.82
2023-04-04T19:14:15.914Z,11.65
2023-04-04T19:17:21.342Z,11.25
2023-04-04T19:20:27.005Z,11.00
2023-04-04T19:23:35.163Z,12.10
2023-04-04T19:26:40.580Z,12.05
2023-04-04T19:29:45.727Z,11.93
2023-04-04T19:32:51.166Z,11.45
2023-04-04T19:35:59.166Z,11.27
2023-04-04T19:39:07.824Z,12.60
2023-04-04T19:42:13.866Z,11.40
2023-04-04T19:45:20.044Z,10.93
2023-04-04T19:48:40.121Z,10.82
2023-04-04T19:51:53.410Z,12.15
2023-04-04T19:55:01.474Z,10.60
2023-04-04T19:58:08.840Z,10.27
2023-04-04T20:01:15.274Z,11.15
2023-04-04T20:04:20.889Z,11.13
2023-04-04T20:07:26.412Z,10.05
2023-04-04T20:10:42.699Z,10.13
2023-04-04T20:13:48.478Z,9.77
2023-04-04T20:16:54.676Z,9.68
2023-04-04T20:20:00.170Z,9.35
2023-04-04T20:23:06.710Z,9.70
2023-04-04T20:26:16.496Z,9.48
2023-04-04T20:29:22.733Z,10.63
2023-04-04T20:32:28.307Z,10.93
2023-04-04T20:35:33.935Z,10.65
2023-04-04T20:38:39.797Z,9.05
2023-04-04T20:41:47.939Z,9.25
2023-04-04T20:44:53.279Z,9.45
2023-04-04T20:48:00.933Z,9.50
2023-04-04T20:51:06.775Z,9.83
2023-04-04T20:54:11.993Z,9.55
2023-04-04T20:57:24.408Z,9.55
2023-04-04T21:00:41.330Z,8.95
2023-04-04T21:03:48.825Z,10.15
2023-04-04T21:06:54.481Z,9.77
2023-04-04T21:09:59.832Z,9.52
2023-04-04T21:13:08.642Z,9.48
2023-04-04T21:16:15.025Z,10.18
2023-04-04T21:19:23.409Z,9.40
2023-04-04T21:22:29.410Z,9.18
2023-04-04T21:25:43.957Z,9.48
2023-04-04T21:28:51.977Z,8.93
2023-04-04T21:31:58.958Z,9.60
2023-04-04T21:35:05.335Z,9.70
2023-04-04T21:38:10.707Z,10.20
2023-04-04T21:41:20.210Z,9.82
2023-04-04T21:44:28.556Z,9.30
2023-04-04T21:47:34.000Z,9.52
2023-04-04T21:50:39.348Z,10.18
2023-04-04T21:53:45.955Z,8.82
2023-04-04T21:56:51.491Z,10.15
2023-04-04T21:59:59.375Z,9.27
2023-04-04T22:03:05.076Z,10.68
2023-04-04T22:06:10.679Z,9.35
2023-04-04T22:09:16.456Z,8.90
2023-04-04T22:12:23.615Z,9.38
2023-04-04T22:15:31.982Z,9.35
2023-04-04T22:18:43.182Z,9.30
2023-04-04T22:21:49.842Z,9.57
2023-04-04T22:25:03.424Z,9.75
2023-04-04T22:28:09.462Z,9.82
2023-04-04T22:31:17.892Z,10.02
2023-04-04T22:34:23.644Z,10.00
2023-04-04T22:37:28.884Z,10.23
2023-04-04T22:40:34.642Z,9.90
2023-04-04T22:43:39.966Z,10.43
2023-04-04T22:46:47.774Z,10.48
2023-04-04T22:49:53.111Z,9.93
2023-04-04T22:52:59.053Z,10.40
2023-04-04T22:56:04.620Z,9.30
2023-04-04T22:59:09.841Z,10.50
2023-04-04T23:02:17.950Z,9.77
2023-04-04T23:05:23.314Z,10.30
2023-04-04T23:08:28.638Z,9.77
2023-04-04T23:11:33.990Z,9.98
2023-04-04T23:14:39.986Z,9.40
2023-04-04T23:17:47.948Z,10.73
2023-04-04T23:20:53.630Z,9.52
2023-04-04T23:23:59.482Z,10.73
2023-04-04T23:27:04.993Z,9.95
2023-04-04T23:30:11.835Z,10.20
2023-04-04T23:33:19.986Z,9.80
2023-04-04T23:36:25.708Z,10.48
2023-04-04T23:39:30.787Z,10.20
2023-04-04T23:42:36.135Z,11.73
2023-04-04T23:45:42.752Z,10.48
2023-04-04T23:48:50.871Z,10.93
2023-04-04T23:51:56.140Z,10.98
2023-04-04T23:55:01.534Z,9.85
2023-04-04T23:58:08.440Z,10.65
